sensor_id;sensor_type;location;lat;lon;timestamp;temperature;humidity
69823;SHT31;57119;52.516;13.508;2022-12-29T00:01:13;8.13;94.91
69823;SHT31;57119;52.516;13.508;2022-12-29T00:03:39;8.13;94.91
69823;SHT31;57119;52.516;13.508;2022-12-29T00:06:04;8.13;94.78
69823;SHT31;57119;52.516;13.508;2022-12-29T00:08:30;8.12;95.18
69823;SHT31;57119;52.516;13.508;2022-12-29T00:11:10;8.16;94.66
69823;SHT31;57119;52.516;13.508;2022-12-29T00:13:35;8.13;94.85
69823;SHT31;57119;52.516;13.508;2022-12-29T00:16:20;8.21;94.49
69823;SHT31;57119;52.516;13.508;2022-12-29T00:18:45;8.20;94.37
69823;SHT31;57119;52.516;13.508;2022-12-29T00:21:19;8.26;93.81
69823;SHT31;57119;52.516;13.508;2022-12-29T00:24:03;8.31;93.87
69823;SHT31;57119;52.516;13.508;2022-12-29T00:26:58;8.29;93.62
69823;SHT31;57119;52.516;13.508;2022-12-29T00:29:43;8.38;93.16
69823;SHT31;57119;52.516;13.508;2022-12-29T00:32:27;8.37;93.00
69823;SHT31;57119;52.516;13.508;2022-12-29T00:35:13;8.45;92.73
69823;SHT31;57119;52.516;13.508;2022-12-29T00:37:45;8.44;92.53
69823;SHT31;57119;52.516;13.508;2022-12-29T00:40:29;8.47;92.70
69823;SHT31;57119;52.516;13.508;2022-12-29T00:43:13;8.55;91.99
69823;SHT31;57119;52.516;13.508;2022-12-29T00:45:58;8.60;91.67
69823;SHT31;57119;52.516;13.508;2022-12-29T00:48:23;8.60;91.65
69823;SHT31;57119;52.516;13.508;2022-12-29T00:51:07;8.60;91.71
69823;SHT31;57119;52.516;13.508;2022-12-29T00:53:33;8.60;91.68
69823;SHT31;57119;52.516;13.508;2022-12-29T00:55:59;8.57;92.08
69823;SHT31;57119;52.516;13.508;2022-12-29T00:58:29;8.51;92.14
69823;SHT31;57119;52.516;13.508;2022-12-29T01:01:04;8.52;92.35
69823;SHT31;57119;52.516;13.508;2022-12-29T01:03:30;8.52;92.18
69823;SHT31;57119;52.516;13.508;2022-12-29T01:05:56;8.48;92.16
69823;SHT31;57119;52.516;13.508;2022-12-29T01:08:21;8.48;92.25
69823;SHT31;57119;52.516;13.508;2022-12-29T01:11:07;8.51;92.16
69823;SHT31;57119;52.516;13.508;2022-12-29T01:13:32;8.48;92.55
69823;SHT31;57119;52.516;13.508;2022-12-29T01:15:58;8.37;93.07
69823;SHT31;57119;52.516;13.508;2022-12-29T01:18:25;8.44;92.67
69823;SHT31;57119;52.516;13.508;2022-12-29T01:21:04;8.41;92.97
69823;SHT31;57119;52.516;13.508;2022-12-29T01:23:31;8.37;93.22
69823;SHT31;57119;52.516;13.508;2022-12-29T01:25:57;8.38;92.79
69823;SHT31;57119;52.516;13.508;2022-12-29T01:28:22;8.44;92.62
69823;SHT31;57119;52.516;13.508;2022-12-29T01:30:48;8.41;92.85
69823;SHT31;57119;52.516;13.508;2022-12-29T01:33:13;8.47;92.75
69823;SHT31;57119;52.516;13.508;2022-12-29T01:35:39;8.47;92.53
69823;SHT31;57119;52.516;13.508;2022-12-29T01:38:05;8.48;92.57
69823;SHT31;57119;52.516;13.508;2022-12-29T01:40:30;8.44;92.79
69823;SHT31;57119;52.516;13.508;2022-12-29T01:42:56;8.44;92.79
69823;SHT31;57119;52.516;13.508;2022-12-29T01:45:21;8.51;92.34
69823;SHT31;57119;52.516;13.508;2022-12-29T01:48:00;8.54;92.08
69823;SHT31;57119;52.516;13.508;2022-12-29T01:50:32;8.48;92.76
69823;SHT31;57119;52.516;13.508;2022-12-29T01:53:15;8.44;93.15
69823;SHT31;57119;52.516;13.508;2022-12-29T01:55:46;8.44;93.04
69823;SHT31;57119;52.516;13.508;2022-12-29T01:58:14;8.37;93.29
69823;SHT31;57119;52.516;13.508;2022-12-29T02:00:43;8.37;93.58
69823;SHT31;57119;52.516;13.508;2022-12-29T02:03:10;8.37;93.50
69823;SHT31;57119;52.516;13.508;2022-12-29T02:05:39;8.30;93.86
69823;SHT31;57119;52.516;13.508;2022-12-29T02:08:07;8.27;94.54
69823;SHT31;57119;52.516;13.508;2022-12-29T02:10:35;8.24;94.27
69823;SHT31;57119;52.516;13.508;2022-12-29T02:13:01;8.20;94.37
69823;SHT31;57119;52.516;13.508;2022-12-29T02:29:51;8.16;94.77
69823;SHT31;57119;52.516;13.508;2022-12-29T02:38:20;8.16;94.31
69823;SHT31;57119;52.516;13.508;2022-12-29T02:43:33;8.24;93.68
69823;SHT31;57119;52.516;13.508;2022-12-29T02:49:01;8.30;93.32
69823;SHT31;57119;52.516;13.508;2022-12-29T02:51:35;8.30;93.04
69823;SHT31;57119;52.516;13.508;2022-12-29T02:54:04;8.33;92.72
69823;SHT31;57119;52.516;13.508;2022-12-29T02:56:48;8.36;92.59
69823;SHT31;57119;52.516;13.508;2022-12-29T02:59:14;8.40;92.08
69823;SHT31;57119;52.516;13.508;2022-12-29T03:13:08;8.65;90.80
69823;SHT31;57119;52.516;13.508;2022-12-29T03:16:20;8.69;90.62
69823;SHT31;57119;52.516;13.508;2022-12-29T03:19:10;8.72;90.23
69823;SHT31;57119;52.516;13.508;2022-12-29T03:21:44;8.79;90.35
69823;SHT31;57119;52.516;13.508;2022-12-29T03:24:32;8.81;90.11
69823;SHT31;57119;52.516;13.508;2022-12-29T03:27:02;8.86;90.15
69823;SHT31;57119;52.516;13.508;2022-12-29T03:29:32;8.88;89.75
69823;SHT31;57119;52.516;13.508;2022-12-29T03:31:59;8.88;90.13
69823;SHT31;57119;52.516;13.508;2022-12-29T03:34:25;8.98;89.34
69823;SHT31;57119;52.516;13.508;2022-12-29T03:36:59;9.02;89.06
69823;SHT31;57119;52.516;13.508;2022-12-29T03:39:26;8.96;89.41
69823;SHT31;57119;52.516;13.508;2022-12-29T03:41:58;9.00;89.62
69823;SHT31;57119;52.516;13.508;2022-12-29T03:44:39;9.08;89.19
69823;SHT31;57119;52.516;13.508;2022-12-29T03:47:07;9.10;88.91
69823;SHT31;57119;52.516;13.508;2022-12-29T03:49:32;9.12;89.09
69823;SHT31;57119;52.516;13.508;2022-12-29T03:51:58;9.17;88.89
69823;SHT31;57119;52.516;13.508;2022-12-29T03:54:23;9.16;89.02
69823;SHT31;57119;52.516;13.508;2022-12-29T03:56:49;9.20;88.68
69823;SHT31;57119;52.516;13.508;2022-12-29T03:59:14;9.17;88.85
69823;SHT31;57119;52.516;13.508;2022-12-29T04:01:40;9.20;88.76
69823;SHT31;57119;52.516;13.508;2022-12-29T04:04:05;9.17;88.95
69823;SHT31;57119;52.516;13.508;2022-12-29T04:06:31;9.24;88.96
69823;SHT31;57119;52.516;13.508;2022-12-29T04:08:56;9.26;88.77
69823;SHT31;57119;52.516;13.508;2022-12-29T04:11:23;9.31;88.88
69823;SHT31;57119;52.516;13.508;2022-12-29T04:13:48;9.30;88.82
69823;SHT31;57119;52.516;13.508;2022-12-29T04:16:14;9.33;88.92
69823;SHT31;57119;52.516;13.508;2022-12-29T04:18:40;9.34;88.86
69823;SHT31;57119;52.516;13.508;2022-12-29T04:21:05;9.31;88.91
69823;SHT31;57119;52.516;13.508;2022-12-29T04:23:34;9.34;88.79
69823;SHT31;57119;52.516;13.508;2022-12-29T04:26:00;9.34;88.84
69823;SHT31;57119;52.516;13.508;2022-12-29T04:28:26;9.37;88.77
69823;SHT31;57119;52.516;13.508;2022-12-29T04:30:51;9.41;88.73
69823;SHT31;57119;52.516;13.508;2022-12-29T04:33:20;9.41;89.06
69823;SHT31;57119;52.516;13.508;2022-12-29T04:35:46;9.43;88.73
69823;SHT31;57119;52.516;13.508;2022-12-29T04:38:12;9.43;88.80
69823;SHT31;57119;52.516;13.508;2022-12-29T04:40:39;9.43;88.64
69823;SHT31;57119;52.516;13.508;2022-12-29T04:43:08;9.43;88.78
69823;SHT31;57119;52.516;13.508;2022-12-29T04:45:35;9.41;89.07
69823;SHT31;57119;52.516;13.508;2022-12-29T04:48:00;9.41;88.84
69823;SHT31;57119;52.516;13.508;2022-12-29T04:50:26;9.34;88.98
69823;SHT31;57119;52.516;13.508;2022-12-29T04:52:51;9.34;88.90
69823;SHT31;57119;52.516;13.508;2022-12-29T04:55:17;9.41;89.06
69823;SHT31;57119;52.516;13.508;2022-12-29T04:57:42;9.40;88.98
69823;SHT31;57119;52.516;13.508;2022-12-29T05:00:08;9.31;89.30
69823;SHT31;57119;52.516;13.508;2022-12-29T05:02:35;9.30;89.27
69823;SHT31;57119;52.516;13.508;2022-12-29T05:05:00;9.36;89.48
69823;SHT31;57119;52.516;13.508;2022-12-29T05:07:26;9.36;89.12
69823;SHT31;57119;52.516;13.508;2022-12-29T05:09:51;9.44;89.10
69823;SHT31;57119;52.516;13.508;2022-12-29T05:12:16;9.48;89.04
69823;SHT31;57119;52.516;13.508;2022-12-29T05:14:42;9.52;88.89
69823;SHT31;57119;52.516;13.508;2022-12-29T05:17:07;9.51;88.96
69823;SHT31;57119;52.516;13.508;2022-12-29T05:19:33;9.51;89.14
69823;SHT31;57119;52.516;13.508;2022-12-29T05:21:58;9.51;89.29
69823;SHT31;57119;52.516;13.508;2022-12-29T05:24:23;9.55;89.07
69823;SHT31;57119;52.516;13.508;2022-12-29T05:26:49;9.58;89.12
69823;SHT31;57119;52.516;13.508;2022-12-29T05:29:14;9.62;89.07
69823;SHT31;57119;52.516;13.508;2022-12-29T05:31:40;9.54;89.48
69823;SHT31;57119;52.516;13.508;2022-12-29T05:34:05;9.59;89.08
69823;SHT31;57119;52.516;13.508;2022-12-29T05:36:31;9.70;89.12
69823;SHT31;57119;52.516;13.508;2022-12-29T05:38:56;9.71;89.11
69823;SHT31;57119;52.516;13.508;2022-12-29T05:41:21;9.70;89.10
69823;SHT31;57119;52.516;13.508;2022-12-29T05:43:47;9.73;89.28
69823;SHT31;57119;52.516;13.508;2022-12-29T05:46:13;9.75;89.24
69823;SHT31;57119;52.516;13.508;2022-12-29T05:48:38;9.82;89.06
69823;SHT31;57119;52.516;13.508;2022-12-29T05:51:04;9.88;88.92
69823;SHT31;57119;52.516;13.508;2022-12-29T05:53:29;9.94;88.84
69823;SHT31;57119;52.516;13.508;2022-12-29T05:55:55;9.94;88.85
69823;SHT31;57119;52.516;13.508;2022-12-29T05:58:20;10.01;88.62
69823;SHT31;57119;52.516;13.508;2022-12-29T06:00:45;10.05;88.77
69823;SHT31;57119;52.516;13.508;2022-12-29T06:03:11;10.09;88.47
69823;SHT31;57119;52.516;13.508;2022-12-29T06:05:36;10.06;88.86
69823;SHT31;57119;52.516;13.508;2022-12-29T06:08:02;10.10;88.60
69823;SHT31;57119;52.516;13.508;2022-12-29T06:10:27;10.17;88.77
69823;SHT31;57119;52.516;13.508;2022-12-29T06:12:53;10.12;88.88
69823;SHT31;57119;52.516;13.508;2022-12-29T06:15:18;10.15;88.72
69823;SHT31;57119;52.516;13.508;2022-12-29T06:17:44;10.25;88.40
69823;SHT31;57119;52.516;13.508;2022-12-29T06:20:10;10.23;88.50
69823;SHT31;57119;52.516;13.508;2022-12-29T06:22:36;10.22;88.74
69823;SHT31;57119;52.516;13.508;2022-12-29T06:25:02;10.20;88.75
69823;SHT31;57119;52.516;13.508;2022-12-29T06:27:28;10.20;88.96
69823;SHT31;57119;52.516;13.508;2022-12-29T06:29:53;10.25;88.74
69823;SHT31;57119;52.516;13.508;2022-12-29T06:32:19;10.28;88.57
69823;SHT31;57119;52.516;13.508;2022-12-29T06:34:44;10.26;88.81
69823;SHT31;57119;52.516;13.508;2022-12-29T06:37:10;10.23;88.73
69823;SHT31;57119;52.516;13.508;2022-12-29T06:39:36;10.28;88.57
69823;SHT31;57119;52.516;13.508;2022-12-29T06:42:02;10.22;89.03
69823;SHT31;57119;52.516;13.508;2022-12-29T06:44:28;10.16;88.91
69823;SHT31;57119;52.516;13.508;2022-12-29T06:46:53;10.26;88.63
69823;SHT31;57119;52.516;13.508;2022-12-29T06:49:19;10.29;88.69
69823;SHT31;57119;52.516;13.508;2022-12-29T06:51:44;10.28;88.76
69823;SHT31;57119;52.516;13.508;2022-12-29T06:54:10;10.20;88.82
69823;SHT31;57119;52.516;13.508;2022-12-29T06:56:35;10.26;88.72
69823;SHT31;57119;52.516;13.508;2022-12-29T06:59:01;10.22;88.89
69823;SHT31;57119;52.516;13.508;2022-12-29T07:01:26;10.22;88.95
69823;SHT31;57119;52.516;13.508;2022-12-29T07:03:52;10.22;89.01
69823;SHT31;57119;52.516;13.508;2022-12-29T07:06:17;10.20;89.06
69823;SHT31;57119;52.516;13.508;2022-12-29T07:08:43;10.03;89.56
69823;SHT31;57119;52.516;13.508;2022-12-29T07:11:09;10.01;89.65
69823;SHT31;57119;52.516;13.508;2022-12-29T07:13:34;9.96;89.80
69823;SHT31;57119;52.516;13.508;2022-12-29T07:16:07;9.94;89.96
69823;SHT31;57119;52.516;13.508;2022-12-29T07:18:34;10.02;89.66
69823;SHT31;57119;52.516;13.508;2022-12-29T07:20:59;9.99;89.82
69823;SHT31;57119;52.516;13.508;2022-12-29T07:23:25;9.91;90.12
69823;SHT31;57119;52.516;13.508;2022-12-29T07:26:02;9.95;90.20
69823;SHT31;57119;52.516;13.508;2022-12-29T07:28:28;10.02;90.02
69823;SHT31;57119;52.516;13.508;2022-12-29T07:30:53;10.05;89.97
69823;SHT31;57119;52.516;13.508;2022-12-29T07:33:18;10.10;89.85
69823;SHT31;57119;52.516;13.508;2022-12-29T07:35:44;10.25;89.53
69823;SHT31;57119;52.516;13.508;2022-12-29T07:38:09;10.28;89.38
69823;SHT31;57119;52.516;13.508;2022-12-29T07:40:35;10.36;89.28
69823;SHT31;57119;52.516;13.508;2022-12-29T07:43:00;10.37;89.36
69823;SHT31;57119;52.516;13.508;2022-12-29T07:45:25;10.44;89.17
69823;SHT31;57119;52.516;13.508;2022-12-29T07:47:51;10.52;88.88
69823;SHT31;57119;52.516;13.508;2022-12-29T07:50:16;10.57;88.90
69823;SHT31;57119;52.516;13.508;2022-12-29T07:52:42;10.61;88.74
69823;SHT31;57119;52.516;13.508;2022-12-29T07:55:08;10.65;88.55
69823;SHT31;57119;52.516;13.508;2022-12-29T07:57:34;10.68;88.62
69823;SHT31;57119;52.516;13.508;2022-12-29T07:59:59;10.68;88.43
69823;SHT31;57119;52.516;13.508;2022-12-29T08:02:25;10.68;88.54
69823;SHT31;57119;52.516;13.508;2022-12-29T08:04:51;10.68;88.77
69823;SHT31;57119;52.516;13.508;2022-12-29T08:07:16;10.75;88.25
69823;SHT31;57119;52.516;13.508;2022-12-29T08:09:42;10.71;88.27
69823;SHT31;57119;52.516;13.508;2022-12-29T08:12:10;10.73;88.26
69823;SHT31;57119;52.516;13.508;2022-12-29T08:14:36;10.71;88.11
69823;SHT31;57119;52.516;13.508;2022-12-29T08:17:01;10.81;88.05
69823;SHT31;57119;52.516;13.508;2022-12-29T08:19:26;10.75;88.08
69823;SHT31;57119;52.516;13.508;2022-12-29T08:21:53;10.77;88.14
69823;SHT31;57119;52.516;13.508;2022-12-29T08:24:18;10.78;88.39
69823;SHT31;57119;52.516;13.508;2022-12-29T08:26:44;10.78;88.12
69823;SHT31;57119;52.516;13.508;2022-12-29T08:29:09;10.75;88.33
69823;SHT31;57119;52.516;13.508;2022-12-29T08:31:35;10.77;88.31
69823;SHT31;57119;52.516;13.508;2022-12-29T08:34:00;10.74;88.37
69823;SHT31;57119;52.516;13.508;2022-12-29T08:36:28;10.77;88.35
69823;SHT31;57119;52.516;13.508;2022-12-29T08:38:54;10.78;88.29
69823;SHT31;57119;52.516;13.508;2022-12-29T08:41:20;10.77;88.38
69823;SHT31;57119;52.516;13.508;2022-12-29T08:43:47;10.81;88.16
69823;SHT31;57119;52.516;13.508;2022-12-29T08:46:13;10.77;88.39
69823;SHT31;57119;52.516;13.508;2022-12-29T08:48:38;10.80;88.39
69823;SHT31;57119;52.516;13.508;2022-12-29T08:51:04;10.85;88.22
69823;SHT31;57119;52.516;13.508;2022-12-29T08:53:29;10.85;88.23
69823;SHT31;57119;52.516;13.508;2022-12-29T08:55:57;10.77;88.31
69823;SHT31;57119;52.516;13.508;2022-12-29T08:58:23;10.83;88.40
69823;SHT31;57119;52.516;13.508;2022-12-29T09:00:51;10.91;87.98
69823;SHT31;57119;52.516;13.508;2022-12-29T09:03:16;11.01;87.89
69823;SHT31;57119;52.516;13.508;2022-12-29T09:05:42;11.07;87.49
69823;SHT31;57119;52.516;13.508;2022-12-29T09:08:07;11.23;87.19
69823;SHT31;57119;52.516;13.508;2022-12-29T09:10:33;11.28;87.00
69823;SHT31;57119;52.516;13.508;2022-12-29T09:12:58;11.39;86.53
69823;SHT31;57119;52.516;13.508;2022-12-29T09:15:23;11.44;86.45
69823;SHT31;57119;52.516;13.508;2022-12-29T09:17:49;11.47;86.26
69823;SHT31;57119;52.516;13.508;2022-12-29T09:20:17;11.46;86.44
69823;SHT31;57119;52.516;13.508;2022-12-29T09:22:43;11.50;86.30
69823;SHT31;57119;52.516;13.508;2022-12-29T09:25:09;11.66;85.79
69823;SHT31;57119;52.516;13.508;2022-12-29T09:27:35;11.74;85.53
69823;SHT31;57119;52.516;13.508;2022-12-29T09:30:02;11.81;85.45
69823;SHT31;57119;52.516;13.508;2022-12-29T09:32:28;11.91;85.25
69823;SHT31;57119;52.516;13.508;2022-12-29T09:34:55;11.94;84.96
69823;SHT31;57119;52.516;13.508;2022-12-29T09:37:20;12.10;84.57
69823;SHT31;57119;52.516;13.508;2022-12-29T09:39:46;12.21;84.70
69823;SHT31;57119;52.516;13.508;2022-12-29T09:42:27;12.16;84.38
69823;SHT31;57119;52.516;13.508;2022-12-29T09:45:04;12.07;84.62
69823;SHT31;57119;52.516;13.508;2022-12-29T09:47:34;11.95;84.94
69823;SHT31;57119;52.516;13.508;2022-12-29T09:50:08;11.98;85.16
69823;SHT31;57119;52.516;13.508;2022-12-29T09:52:40;12.69;83.28
69823;SHT31;57119;52.516;13.508;2022-12-29T09:55:15;13.68;80.22
69823;SHT31;57119;52.516;13.508;2022-12-29T09:57:56;13.72;79.82
69823;SHT31;57119;52.516;13.508;2022-12-29T10:00:36;13.85;79.15
69823;SHT31;57119;52.516;13.508;2022-12-29T10:03:15;13.65;80.35
69823;SHT31;57119;52.516;13.508;2022-12-29T10:05:59;13.11;81.31
69823;SHT31;57119;52.516;13.508;2022-12-29T10:08:44;13.04;82.05
69823;SHT31;57119;52.516;13.508;2022-12-29T10:11:29;12.86;82.17
69823;SHT31;57119;52.516;13.508;2022-12-29T10:24:47;12.55;83.62
69823;SHT31;57119;52.516;13.508;2022-12-29T10:27:15;12.99;82.59
69823;SHT31;57119;52.516;13.508;2022-12-29T10:29:50;13.93;79.58
69823;SHT31;57119;52.516;13.508;2022-12-29T10:32:33;14.58;77.90
69823;SHT31;57119;52.516;13.508;2022-12-29T10:35:28;15.13;74.91
69823;SHT31;57119;52.516;13.508;2022-12-29T10:40:42;15.23;75.35
69823;SHT31;57119;52.516;13.508;2022-12-29T10:43:29;16.29;73.18
69823;SHT31;57119;52.516;13.508;2022-12-29T10:46:04;16.29;72.28
69823;SHT31;57119;52.516;13.508;2022-12-29T10:48:32;16.85;71.71
69823;SHT31;57119;52.516;13.508;2022-12-29T10:50:59;15.19;75.06
69823;SHT31;57119;52.516;13.508;2022-12-29T10:53:31;14.61;76.57
69823;SHT31;57119;52.516;13.508;2022-12-29T10:55:59;14.54;77.00
69823;SHT31;57119;52.516;13.508;2022-12-29T10:58:26;14.05;78.72
69823;SHT31;57119;52.516;13.508;2022-12-29T11:00:53;13.71;79.82
69823;SHT31;57119;52.516;13.508;2022-12-29T11:03:36;13.54;80.29
69823;SHT31;57119;52.516;13.508;2022-12-29T11:06:13;13.50;80.30
69823;SHT31;57119;52.516;13.508;2022-12-29T11:11:24;13.31;81.28
69823;SHT31;57119;52.516;13.508;2022-12-29T11:13:57;13.45;80.63
69823;SHT31;57119;52.516;13.508;2022-12-29T11:16:33;13.34;81.01
69823;SHT31;57119;52.516;13.508;2022-12-29T11:19:00;13.10;81.57
69823;SHT31;57119;52.516;13.508;2022-12-29T11:21:33;13.07;81.82
69823;SHT31;57119;52.516;13.508;2022-12-29T11:24:04;12.99;82.21
69823;SHT31;57119;52.516;13.508;2022-12-29T11:26:32;12.90;82.45
69823;SHT31;57119;52.516;13.508;2022-12-29T11:31:58;12.92;82.75
69823;SHT31;57119;52.516;13.508;2022-12-29T11:34:32;12.83;83.02
69823;SHT31;57119;52.516;13.508;2022-12-29T11:37:02;12.85;83.32
69823;SHT31;57119;52.516;13.508;2022-12-29T11:42:00;12.67;84.81
69823;SHT31;57119;52.516;13.508;2022-12-29T11:44:33;12.60;85.66
69823;SHT31;57119;52.516;13.508;2022-12-29T11:47:00;12.41;86.64
69823;SHT31;57119;52.516;13.508;2022-12-29T11:49:26;12.38;87.11
69823;SHT31;57119;52.516;13.508;2022-12-29T11:51:53;12.38;86.99
69823;SHT31;57119;52.516;13.508;2022-12-29T11:54:42;12.31;87.31
69823;SHT31;57119;52.516;13.508;2022-12-29T11:57:11;12.29;86.93
69823;SHT31;57119;52.516;13.508;2022-12-29T11:59:41;12.31;87.06
69823;SHT31;57119;52.516;13.508;2022-12-29T12:03:28;12.13;87.46
69823;SHT31;57119;52.516;13.508;2022-12-29T12:05:40;12.02;87.90
69823;SHT31;57119;52.516;13.508;2022-12-29T12:11:10;11.70;89.35
69823;SHT31;57119;52.516;13.508;2022-12-29T12:14:02;11.36;91.31
69823;SHT31;57119;52.516;13.508;2022-12-29T12:16:41;11.02;93.60
69823;SHT31;57119;52.516;13.508;2022-12-29T12:24:59;10.57;96.71
69823;SHT31;57119;52.516;13.508;2022-12-29T12:27:51;10.52;96.59
69823;SHT31;57119;52.516;13.508;2022-12-29T12:30:20;10.46;97.34
69823;SHT31;57119;52.516;13.508;2022-12-29T12:33:32;10.49;96.65
69823;SHT31;57119;52.516;13.508;2022-12-29T12:36:23;10.54;97.00
69823;SHT31;57119;52.516;13.508;2022-12-29T12:50:15;10.50;96.71
69823;SHT31;57119;52.516;13.508;2022-12-29T12:58:55;10.43;96.13
69823;SHT31;57119;52.516;13.508;2022-12-29T13:04:22;10.37;96.11
69823;SHT31;57119;52.516;13.508;2022-12-29T13:07:22;10.64;96.27
69823;SHT31;57119;52.516;13.508;2022-12-29T13:10:16;11.40;94.26
69823;SHT31;57119;52.516;13.508;2022-12-29T13:19:32;10.75;95.06
69823;SHT31;57119;52.516;13.508;2022-12-29T13:25:16;11.00;94.39
69823;SHT31;57119;52.516;13.508;2022-12-29T13:27:59;10.95;94.87
69823;SHT31;57119;52.516;13.508;2022-12-29T13:30:55;10.88;94.47
69823;SHT31;57119;52.516;13.508;2022-12-29T13:36:07;10.68;95.47
69823;SHT31;57119;52.516;13.508;2022-12-29T13:38:41;10.64;95.53
69823;SHT31;57119;52.516;13.508;2022-12-29T13:41:13;10.57;95.64
69823;SHT31;57119;52.516;13.508;2022-12-29T13:43:41;10.56;95.60
69823;SHT31;57119;52.516;13.508;2022-12-29T13:46:12;10.54;95.40
69823;SHT31;57119;52.516;13.508;2022-12-29T13:48:40;10.56;95.57
69823;SHT31;57119;52.516;13.508;2022-12-29T13:51:09;10.53;95.75
69823;SHT31;57119;52.516;13.508;2022-12-29T13:56:39;10.54;95.78
69823;SHT31;57119;52.516;13.508;2022-12-29T13:59:38;10.59;95.89
69823;SHT31;57119;52.516;13.508;2022-12-29T14:08:13;10.52;96.14
69823;SHT31;57119;52.516;13.508;2022-12-29T14:10:48;10.49;96.23
69823;SHT31;57119;52.516;13.508;2022-12-29T14:13:20;10.44;96.44
69823;SHT31;57119;52.516;13.508;2022-12-29T14:15:57;10.35;96.70
69823;SHT31;57119;52.516;13.508;2022-12-29T14:18:28;10.42;96.74
69823;SHT31;57119;52.516;13.508;2022-12-29T14:20:59;10.30;96.85
69823;SHT31;57119;52.516;13.508;2022-12-29T14:23:39;10.25;97.21
69823;SHT31;57119;52.516;13.508;2022-12-29T14:28:42;10.17;97.20
69823;SHT31;57119;52.516;13.508;2022-12-29T14:33:39;10.10;97.48
69823;SHT31;57119;52.516;13.508;2022-12-29T14:36:34;10.06;97.79
69823;SHT31;57119;52.516;13.508;2022-12-29T14:39:00;9.99;97.74
69823;SHT31;57119;52.516;13.508;2022-12-29T14:41:40;10.01;97.73
69823;SHT31;57119;52.516;13.508;2022-12-29T14:49:15;10.05;97.31
69823;SHT31;57119;52.516;13.508;2022-12-29T14:51:42;9.95;97.39
69823;SHT31;57119;52.516;13.508;2022-12-29T14:57:03;10.03;97.06
69823;SHT31;57119;52.516;13.508;2022-12-29T14:59:30;10.02;97.00
69823;SHT31;57119;52.516;13.508;2022-12-29T15:01:57;9.98;97.09
69823;SHT31;57119;52.516;13.508;2022-12-29T15:04:30;10.03;96.87
69823;SHT31;57119;52.516;13.508;2022-12-29T15:06:58;10.10;96.32
69823;SHT31;57119;52.516;13.508;2022-12-29T15:09:30;10.09;96.21
69823;SHT31;57119;52.516;13.508;2022-12-29T15:12:11;10.10;95.90
69823;SHT31;57119;52.516;13.508;2022-12-29T15:14:49;10.12;96.07
69823;SHT31;57119;52.516;13.508;2022-12-29T15:17:44;10.01;96.27
69823;SHT31;57119;52.516;13.508;2022-12-29T15:20:27;10.06;96.15
69823;SHT31;57119;52.516;13.508;2022-12-29T15:23:08;10.28;95.44
69823;SHT31;57119;52.516;13.508;2022-12-29T15:25:34;10.40;95.62
69823;SHT31;57119;52.516;13.508;2022-12-29T15:28:03;10.42;95.77
69823;SHT31;57119;52.516;13.508;2022-12-29T15:30:29;10.36;95.66
69823;SHT31;57119;52.516;13.508;2022-12-29T15:32:55;10.29;96.03
69823;SHT31;57119;52.516;13.508;2022-12-29T15:35:31;10.15;96.72
69823;SHT31;57119;52.516;13.508;2022-12-29T15:37:58;10.06;97.02
69823;SHT31;57119;52.516;13.508;2022-12-29T15:40:27;9.98;97.21
69823;SHT31;57119;52.516;13.508;2022-12-29T15:45:43;9.81;97.47
69823;SHT31;57119;52.516;13.508;2022-12-29T15:48:19;9.75;97.27
69823;SHT31;57119;52.516;13.508;2022-12-29T15:50:46;9.64;97.60
69823;SHT31;57119;52.516;13.508;2022-12-29T15:53:34;9.55;97.81
69823;SHT31;57119;52.516;13.508;2022-12-29T15:56:08;9.47;97.79
69823;SHT31;57119;52.516;13.508;2022-12-29T15:58:44;9.44;97.79
69823;SHT31;57119;52.516;13.508;2022-12-29T16:01:30;9.44;97.85
69823;SHT31;57119;52.516;13.508;2022-12-29T16:03:58;9.40;97.76
69823;SHT31;57119;52.516;13.508;2022-12-29T16:06:36;9.41;97.70
69823;SHT31;57119;52.516;13.508;2022-12-29T16:09:14;9.34;97.78
69823;SHT31;57119;52.516;13.508;2022-12-29T16:11:45;9.34;97.61
69823;SHT31;57119;52.516;13.508;2022-12-29T16:14:33;9.37;97.29
69823;SHT31;57119;52.516;13.508;2022-12-29T16:17:03;9.52;96.64
69823;SHT31;57119;52.516;13.508;2022-12-29T16:19:33;9.57;96.16
69823;SHT31;57119;52.516;13.508;2022-12-29T16:22:00;9.70;95.64
69823;SHT31;57119;52.516;13.508;2022-12-29T16:24:31;9.67;95.74
69823;SHT31;57119;52.516;13.508;2022-12-29T16:29:29;9.86;93.99
69823;SHT31;57119;52.516;13.508;2022-12-29T16:31:57;9.91;93.46
69823;SHT31;57119;52.516;13.508;2022-12-29T16:34:31;9.96;92.59
69823;SHT31;57119;52.516;13.508;2022-12-29T16:37:00;10.01;92.25
69823;SHT31;57119;52.516;13.508;2022-12-29T16:39:36;9.91;92.41
69823;SHT31;57119;52.516;13.508;2022-12-29T16:47:52;9.88;91.23
69823;SHT31;57119;52.516;13.508;2022-12-29T16:50:35;9.91;90.98
69823;SHT31;57119;52.516;13.508;2022-12-29T16:53:02;9.98;90.06
69823;SHT31;57119;52.516;13.508;2022-12-29T16:55:29;9.96;90.12
69823;SHT31;57119;52.516;13.508;2022-12-29T16:57:58;9.92;90.04
69823;SHT31;57119;52.516;13.508;2022-12-29T17:00:26;9.88;90.05
69823;SHT31;57119;52.516;13.508;2022-12-29T17:02:55;9.86;89.93
69823;SHT31;57119;52.516;13.508;2022-12-29T17:05:22;9.82;89.90
69823;SHT31;57119;52.516;13.508;2022-12-29T17:07:47;9.95;89.23
69823;SHT31;57119;52.516;13.508;2022-12-29T17:10:13;9.86;89.48
69823;SHT31;57119;52.516;13.508;2022-12-29T17:12:40;9.79;89.57
69823;SHT31;57119;52.516;13.508;2022-12-29T17:15:14;9.77;89.36
69823;SHT31;57119;52.516;13.508;2022-12-29T17:17:46;9.77;89.28
69823;SHT31;57119;52.516;13.508;2022-12-29T17:20:25;9.79;88.90
69823;SHT31;57119;52.516;13.508;2022-12-29T17:22:51;9.85;88.67
69823;SHT31;57119;52.516;13.508;2022-12-29T17:25:29;9.91;88.20
69823;SHT31;57119;52.516;13.508;2022-12-29T17:28:00;9.98;87.82
69823;SHT31;57119;52.516;13.508;2022-12-29T17:30:28;10.05;87.73
69823;SHT31;57119;52.516;13.508;2022-12-29T17:33:01;10.13;87.13
69823;SHT31;57119;52.516;13.508;2022-12-29T17:35:26;10.12;87.09
69823;SHT31;57119;52.516;13.508;2022-12-29T17:37:52;10.13;86.99
69823;SHT31;57119;52.516;13.508;2022-12-29T17:40:20;10.17;86.56
69823;SHT31;57119;52.516;13.508;2022-12-29T17:42:52;10.28;85.87
69823;SHT31;57119;52.516;13.508;2022-12-29T17:45:23;10.30;85.76
69823;SHT31;57119;52.516;13.508;2022-12-29T17:47:50;10.35;85.69
69823;SHT31;57119;52.516;13.508;2022-12-29T17:50:20;10.29;85.93
69823;SHT31;57119;52.516;13.508;2022-12-29T17:52:55;10.28;85.58
69823;SHT31;57119;52.516;13.508;2022-12-29T17:55:22;10.26;85.79
69823;SHT31;57119;52.516;13.508;2022-12-29T17:57:48;10.29;85.59